createdAt,value
2018-05-23T00:02:48.666Z,97.20
2018-05-23T00:05:58.028Z,97.50
2018-05-23T00:09:06.909Z,97.50
2018-05-23T00:12:15.540Z,97.60
2018-05-23T00:15:24.197Z,97.70
2018-05-23T00:18:32.989Z,97.90
2018-05-23T00:21:41.715Z,98.00
2018-05-23T00:24:50.767Z,98.10
2018-05-23T00:27:59.380Z,98.30
2018-05-23T00:31:08.847Z,98.60
2018-05-23T00:34:17.505Z,98.60
2018-05-23T00:37:26.159Z,98.70
2018-05-23T00:40:34.979Z,98.70
2018-05-23T00:43:43.660Z,98.50
2018-05-23T00:46:52.324Z,98.90
2018-05-23T00:50:00.939Z,99.00
2018-05-23T00:53:09.676Z,99.10
2018-05-23T00:56:18.359Z,99.20
2018-05-23T00:59:27.219Z,99.20
2018-05-23T01:02:36.531Z,99.40
2018-05-23T01:05:45.216Z,99.40
2018-05-23T01:08:53.689Z,99.50
2018-05-23T01:12:02.397Z,99.50
2018-05-23T01:15:11.237Z,99.50
2018-05-23T01:18:21.245Z,99.60
2018-05-23T01:21:29.767Z,99.60
2018-05-23T01:24:38.451Z,99.70
2018-05-23T01:27:47.094Z,99.70
2018-05-23T01:30:56.583Z,99.70
2018-05-23T01:34:05.160Z,99.70
2018-05-23T01:37:13.816Z,99.80
2018-05-23T01:40:22.500Z,99.80
2018-05-23T01:43:31.966Z,99.90
2018-05-23T01:46:40.600Z,99.90
2018-05-23T01:49:49.246Z,99.90
2018-05-23T01:52:58.010Z,99.90
2018-05-23T01:56:06.753Z,99.90
2018-05-23T01:59:15.474Z,99.90
2018-05-23T02:02:24.202Z,99.90
2018-05-23T02:05:32.882Z,99.90
2018-05-23T02:08:41.759Z,99.90
2018-05-23T02:11:51.092Z,99.90
2018-05-23T02:15:00.520Z,99.90
2018-05-23T02:18:10.146Z,99.90
2018-05-23T02:21:18.752Z,99.90
2018-05-23T02:24:28.195Z,99.90
2018-05-23T02:27:36.809Z,99.90
2018-05-23T02:30:46.250Z,99.90
2018-05-23T02:33:55.016Z,99.90
2018-05-23T02:37:03.822Z,99.90
2018-05-23T02:40:12.431Z,99.90
2018-05-23T02:43:21.136Z,99.90
2018-05-23T02:46:29.900Z,99.90
2018-05-23T02:49:38.690Z,99.90
2018-05-23T02:52:47.437Z,99.90
2018-05-23T02:55:56.066Z,99.90
2018-05-23T02:59:04.863Z,99.90
2018-05-23T03:02:13.510Z,99.90
2018-05-23T03:05:22.138Z,99.90
2018-05-23T03:08:30.941Z,99.90
2018-05-23T03:11:40.478Z,99.90
2018-05-23T03:14:49.306Z,99.90
2018-05-23T03:17:58.011Z,99.90
2018-05-23T03:21:06.695Z,99.90
2018-05-23T03:24:16.190Z,99.90
2018-05-23T03:27:24.742Z,99.90
2018-05-23T03:30:33.518Z,99.90
2018-05-23T03:33:43.089Z,99.90
2018-05-23T03:36:52.597Z,99.90
2018-05-23T03:40:01.438Z,99.90
2018-05-23T03:43:10.940Z,99.20
2018-05-23T03:46:20.588Z,97.90
2018-05-23T03:49:29.339Z,97.90
2018-05-23T03:52:38.052Z,97.50
2018-05-23T03:55:46.947Z,97.20
2018-05-23T03:58:55.672Z,96.40
2018-05-23T04:02:16.980Z,96.20
2018-05-23T04:05:37.878Z,96.20
2018-05-23T04:08:46.559Z,95.90
2018-05-23T04:11:55.243Z,95.90
2018-05-23T04:15:04.000Z,95.40
2018-05-23T04:18:12.599Z,95.10
2018-05-23T04:21:21.151Z,94.80
2018-05-23T04:24:29.942Z,94.00
2018-05-23T04:27:38.597Z,93.90
2018-05-23T04:30:48.110Z,93.90
2018-05-23T04:33:56.840Z,93.80
2018-05-23T04:37:06.371Z,93.90
2018-05-23T04:40:14.994Z,93.90
2018-05-23T04:43:23.731Z,93.50
2018-05-23T04:46:32.341Z,92.70
2018-05-23T04:49:41.668Z,91.80
2018-05-23T04:52:50.392Z,91.70
2018-05-23T04:55:59.944Z,92.80
2018-05-23T04:59:08.777Z,92.70
2018-05-23T05:02:18.386Z,91.60
2018-05-23T05:05:26.939Z,91.60
2018-05-23T05:08:36.444Z,91.30
2018-05-23T05:11:45.217Z,91.30
2018-05-23T05:14:53.855Z,90.80
2018-05-23T05:18:03.251Z,90.50
2018-05-23T05:21:11.971Z,90.50
2018-05-23T05:24:20.709Z,90.10
2018-05-23T05:27:30.267Z,90.80
2018-05-23T05:30:38.939Z,90.50
2018-05-23T05:33:47.629Z,90.40
2018-05-23T05:36:56.303Z,90.00
2018-05-23T05:40:05.896Z,88.80
2018-05-23T05:43:14.357Z,88.80
2018-05-23T05:46:23.166Z,87.30
2018-05-23T05:49:32.348Z,87.10
2018-05-23T05:52:40.932Z,87.10
2018-05-23T05:55:50.362Z,86.30
2018-05-23T05:58:58.962Z,86.30
2018-05-23T06:02:07.716Z,85.80
2018-05-23T06:05:16.219Z,88.00
2018-05-23T06:08:24.956Z,85.90
2018-05-23T06:11:33.578Z,84.70
2018-05-23T06:14:42.414Z,85.90
2018-05-23T06:17:51.165Z,84.60
2018-05-23T06:20:59.842Z,85.50
2018-05-23T06:24:08.649Z,86.10
2018-05-23T06:27:17.625Z,84.50
2018-05-23T06:30:26.991Z,83.00
2018-05-23T06:33:35.803Z,83.00
2018-05-23T06:36:44.524Z,81.00
2018-05-23T06:39:53.326Z,82.90
2018-05-23T06:43:01.971Z,82.10
2018-05-23T06:46:10.535Z,83.00
2018-05-23T06:49:19.151Z,82.40
2018-05-23T06:52:28.759Z,82.50
2018-05-23T06:55:37.617Z,82.60
2018-05-23T06:58:46.291Z,80.60
2018-05-23T07:01:54.845Z,83.20
2018-05-23T07:05:03.439Z,80.10
2018-05-23T07:08:12.165Z,78.30
2018-05-23T07:11:20.699Z,79.20
2018-05-23T07:14:29.369Z,80.70
2018-05-23T07:17:38.875Z,81.50
2018-05-23T07:20:48.399Z,80.40
2018-05-23T07:23:57.052Z,80.40
2018-05-23T07:27:05.859Z,82.00
2018-05-23T07:30:14.639Z,79.80
2018-05-23T07:33:24.071Z,80.80
2018-05-23T07:36:33.557Z,80.20
2018-05-23T07:39:42.342Z,80.10
2018-05-23T07:42:52.781Z,80.50
2018-05-23T07:46:02.169Z,77.90
2018-05-23T07:49:10.839Z,77.90
2018-05-23T07:52:19.636Z,76.10
2018-05-23T07:55:28.592Z,76.30
2018-05-23T07:58:37.368Z,76.90
2018-05-23T08:01:45.988Z,76.80
2018-05-23T08:04:54.542Z,75.40
2018-05-23T08:08:04.046Z,75.70
2018-05-23T08:11:12.559Z,75.70
2018-05-23T08:14:21.100Z,75.90
2018-05-23T08:17:29.810Z,73.70
2018-05-23T08:20:38.418Z,71.70
2018-05-23T08:23:47.951Z,70.80
2018-05-23T08:26:56.614Z,70.80
2018-05-23T08:30:05.231Z,70.80
2018-05-23T08:33:13.981Z,70.60
2018-05-23T08:36:23.477Z,70.60
2018-05-23T08:39:32.206Z,70.50
2018-05-23T08:42:40.871Z,68.60
2018-05-23T08:45:49.629Z,68.00
2018-05-23T08:48:58.314Z,69.60
2018-05-23T08:52:06.879Z,67.90
2018-05-23T08:55:15.663Z,67.60
2018-05-23T08:58:25.027Z,66.90
2018-05-23T09:01:33.752Z,66.80
2018-05-23T09:04:42.390Z,64.80
2018-05-23T09:07:50.951Z,65.00
2018-05-23T09:10:59.616Z,65.90
2018-05-23T09:14:08.278Z,64.50
2018-05-23T09:17:17.043Z,67.70
2018-05-23T09:20:25.694Z,67.80
2018-05-23T09:23:34.466Z,66.60
2018-05-23T09:26:43.131Z,66.90
2018-05-23T09:29:51.892Z,67.20
2018-05-23T09:33:00.615Z,67.70
2018-05-23T09:36:09.275Z,66.60
2018-05-23T09:39:18.954Z,66.80
2018-05-23T09:42:28.420Z,66.30
2018-05-23T09:45:37.870Z,65.20
2018-05-23T09:48:46.525Z,65.20
2018-05-23T09:51:55.053Z,66.50
2018-05-23T09:55:03.759Z,66.80
2018-05-23T09:58:12.450Z,65.90
2018-05-23T10:01:21.836Z,63.10
2018-05-23T10:04:30.576Z,63.00
2018-05-23T10:07:39.249Z,66.10
2018-05-23T10:10:47.834Z,63.90
2018-05-23T10:13:56.587Z,62.50
2018-05-23T10:17:05.281Z,65.80
2018-05-23T10:20:13.940Z,64.60
2018-05-23T10:23:22.518Z,64.10
2018-05-23T10:26:31.159Z,64.50
2018-05-23T10:29:39.918Z,63.10
2018-05-23T10:32:48.495Z,63.60
2018-05-23T10:35:57.186Z,61.60
2018-05-23T10:39:05.833Z,62.00
2018-05-23T10:42:14.743Z,57.70
2018-05-23T10:45:23.464Z,59.50
2018-05-23T10:48:32.116Z,59.20
2018-05-23T10:51:40.778Z,58.60
2018-05-23T10:54:49.468Z,59.00
2018-05-23T10:57:58.206Z,58.90
2018-05-23T11:01:06.940Z,57.10
2018-05-23T11:04:15.772Z,57.80
2018-05-23T11:07:25.256Z,56.70
2018-05-23T11:10:34.006Z,56.60
2018-05-23T11:13:43.035Z,58.50
2018-05-23T11:16:51.649Z,57.30
2018-05-23T11:20:01.205Z,57.30
2018-05-23T11:23:09.864Z,57.30
2018-05-23T11:26:19.354Z,58.80
2018-05-23T11:29:28.175Z,58.70
2018-05-23T11:32:36.927Z,58.90
2018-05-23T11:35:46.538Z,60.00
2018-05-23T11:38:55.267Z,60.00
2018-05-23T11:42:05.951Z,60.80
2018-05-23T11:45:14.655Z,61.70
2018-05-23T11:48:23.360Z,62.20
2018-05-23T11:51:32.082Z,63.40
2018-05-23T11:54:40.790Z,62.60
2018-05-23T11:57:49.426Z,62.40
2018-05-23T12:00:58.193Z,62.80
2018-05-23T12:04:06.986Z,63.80
2018-05-23T12:07:15.585Z,63.20
2018-05-23T12:10:25.239Z,61.50
2018-05-23T12:13:34.131Z,61.40
2018-05-23T12:16:42.947Z,61.40
2018-05-23T12:19:52.368Z,61.00
2018-05-23T12:23:01.108Z,60.40
2018-05-23T12:26:09.904Z,59.60
2018-05-23T12:29:18.706Z,59.60
2018-05-23T12:32:27.532Z,59.20
2018-05-23T12:35:36.365Z,59.30
2018-05-23T12:38:45.160Z,58.50
2018-05-23T12:41:53.938Z,58.30
2018-05-23T12:45:03.490Z,58.20
2018-05-23T12:48:12.133Z,58.20
2018-05-23T12:51:21.139Z,58.10
2018-05-23T12:54:29.892Z,56.90
2018-05-23T12:57:38.421Z,57.60
2018-05-23T13:00:47.070Z,57.40
2018-05-23T13:03:55.667Z,57.00
2018-05-23T13:07:04.447Z,57.20
2018-05-23T13:10:13.265Z,56.90
2018-05-23T13:13:22.818Z,57.40
2018-05-23T13:16:31.455Z,57.30
2018-05-23T13:19:40.090Z,56.60
2018-05-23T13:22:48.819Z,57.30
2018-05-23T13:25:57.397Z,56.80
2018-05-23T13:29:06.039Z,56.20
2018-05-23T13:32:14.753Z,55.60
2018-05-23T13:38:55.898Z,56.50
2018-05-23T13:42:04.563Z,57.20
2018-05-23T13:45:13.280Z,58.30
2018-05-23T13:48:22.017Z,58.00
2018-05-23T13:51:30.963Z,56.50
2018-05-23T13:54:40.229Z,56.60
2018-05-23T13:57:49.032Z,57.90
2018-05-23T14:00:58.514Z,57.40
2018-05-23T14:04:07.205Z,57.40
2018-05-23T14:07:16.066Z,57.10
2018-05-23T14:10:24.758Z,57.60
2018-05-23T14:13:33.506Z,57.80
2018-05-23T14:16:43.090Z,58.50
2018-05-23T14:19:51.686Z,58.50
2018-05-23T14:23:00.642Z,58.60
2018-05-23T14:26:09.477Z,58.90
2018-05-23T14:29:18.087Z,58.10
2018-05-23T14:32:27.529Z,58.20
2018-05-23T14:35:37.011Z,57.90
2018-05-23T14:38:45.676Z,57.90
2018-05-23T14:41:54.422Z,58.20
2018-05-23T14:45:03.361Z,58.20
2018-05-23T14:48:12.205Z,58.20
2018-05-23T14:51:21.547Z,58.00
2018-05-23T14:54:30.427Z,58.00
2018-05-23T14:57:40.046Z,58.80
2018-05-23T15:00:48.865Z,58.70
2018-05-23T15:03:57.505Z,57.30
2018-05-23T15:07:06.330Z,58.00
2018-05-23T15:10:15.005Z,58.90
2018-05-23T15:13:23.771Z,58.40
2018-05-23T15:16:32.992Z,56.70
2018-05-23T15:19:42.581Z,55.80
2018-05-23T15:22:51.336Z,55.80
2018-05-23T15:26:00.226Z,55.40
2018-05-23T15:29:08.874Z,56.00
2018-05-23T15:32:17.523Z,54.90
2018-05-23T15:35:26.268Z,55.10
2018-05-23T15:38:34.894Z,55.30
2018-05-23T15:41:43.563Z,54.90
2018-05-23T15:44:52.271Z,55.30
2018-05-23T15:48:00.948Z,55.30
2018-05-23T15:51:10.057Z,54.90
2018-05-23T15:54:19.663Z,54.50
2018-05-23T15:57:28.204Z,54.50
2018-05-23T16:00:37.702Z,55.20
2018-05-23T16:03:46.282Z,55.20
2018-05-23T16:06:55.167Z,55.70
2018-05-23T16:10:04.504Z,56.60
2018-05-23T16:13:13.994Z,57.30
2018-05-23T16:16:23.641Z,57.30
2018-05-23T16:19:32.395Z,57.30
2018-05-23T16:22:41.176Z,57.40
2018-05-23T16:25:50.068Z,57.40
2018-05-23T16:29:02.680Z,58.50
2018-05-23T16:32:12.211Z,57.90
2018-05-23T16:35:21.035Z,57.90
2018-05-23T16:38:29.728Z,58.00
2018-05-23T16:41:38.398Z,58.30
2018-05-23T16:44:47.118Z,58.10
2018-05-23T16:47:55.818Z,57.90
2018-05-23T16:51:04.540Z,57.60
2018-05-23T16:54:14.026Z,57.20
2018-05-23T16:57:22.558Z,57.20
2018-05-23T17:00:32.487Z,56.70
2018-05-23T17:03:41.109Z,56.70
2018-05-23T17:06:49.851Z,56.70
2018-05-23T17:09:58.443Z,56.60
2018-05-23T17:13:07.128Z,56.60
2018-05-23T17:16:15.874Z,56.50
2018-05-23T17:19:24.504Z,56.60
2018-05-23T17:22:33.080Z,56.90
2018-05-23T17:25:41.872Z,56.20
2018-05-23T17:28:50.684Z,56.50
2018-05-23T17:32:00.021Z,56.60
2018-05-23T17:35:08.771Z,56.50
2018-05-23T17:38:17.495Z,56.40
2018-05-23T17:41:26.136Z,56.50
2018-05-23T17:44:34.838Z,56.90
2018-05-23T17:47:43.539Z,56.90
2018-05-23T17:50:52.139Z,56.70
2018-05-23T17:54:01.022Z,56.70
2018-05-23T17:57:09.774Z,56.90
2018-05-23T18:00:18.518Z,57.30
2018-05-23T18:03:27.241Z,57.00
2018-05-23T18:06:36.033Z,57.10
2018-05-23T18:09:44.663Z,57.30
2018-05-23T18:12:53.275Z,57.20
2018-05-23T18:16:02.076Z,57.40
2018-05-23T18:19:10.820Z,57.50
2018-05-23T18:22:19.471Z,57.50
2018-05-23T18:25:28.028Z,57.40
2018-05-23T18:28:36.753Z,57.70
2018-05-23T18:31:45.269Z,58.00
2018-05-23T18:34:54.183Z,58.40
2018-05-23T18:38:02.839Z,58.60
2018-05-23T18:41:11.462Z,59.10
2018-05-23T18:44:20.199Z,59.40
2018-05-23T18:47:28.916Z,59.80
2018-05-23T18:50:37.518Z,60.10
2018-05-23T18:53:46.078Z,60.60
2018-05-23T18:56:55.615Z,61.50
2018-05-23T19:00:04.464Z,61.40
2018-05-23T19:03:13.046Z,61.80
2018-05-23T19:06:21.742Z,62.20
2018-05-23T19:09:31.074Z,63.00
2018-05-23T19:12:39.682Z,62.90
2018-05-23T19:15:48.222Z,63.20
2018-05-23T19:18:56.861Z,63.40
2018-05-23T19:22:05.678Z,64.50
2018-05-23T19:25:14.272Z,66.10
2018-05-23T19:28:22.886Z,68.00
2018-05-23T19:31:31.480Z,69.70
2018-05-23T19:34:40.228Z,72.50
2018-05-23T19:37:48.809Z,74.30
2018-05-23T19:40:57.503Z,76.20
2018-05-23T19:44:06.997Z,79.00
2018-05-23T19:47:15.688Z,79.70
2018-05-23T19:50:25.093Z,81.70
2018-05-23T19:53:33.680Z,81.70
2018-05-23T19:56:43.054Z,84.30
2018-05-23T19:59:51.987Z,84.20
2018-05-23T20:03:00.632Z,85.50
2018-05-23T20:06:09.172Z,86.70
2018-05-23T20:09:17.930Z,87.80
2018-05-23T20:12:26.534Z,89.00
2018-05-23T20:15:35.097Z,90.00
2018-05-23T20:18:43.735Z,90.50
2018-05-23T20:21:52.412Z,91.00
2018-05-23T20:25:01.207Z,91.40
2018-05-23T20:28:09.795Z,91.80
2018-05-23T20:31:18.463Z,92.20
2018-05-23T20:34:27.064Z,92.50
2018-05-23T20:37:35.779Z,92.80
2018-05-23T20:40:44.442Z,93.00
2018-05-23T20:43:53.076Z,93.30
2018-05-23T20:47:01.740Z,93.60
2018-05-23T20:50:11.104Z,94.00
2018-05-23T20:53:19.681Z,94.00
2018-05-23T20:56:28.440Z,94.60
2018-05-23T20:59:37.299Z,94.40
2018-05-23T21:02:46.937Z,94.90
2018-05-23T21:05:55.704Z,94.80
2018-05-23T21:09:07.028Z,95.10
2018-05-23T21:12:15.757Z,95.20
2018-05-23T21:15:24.538Z,95.30
2018-05-23T21:18:33.195Z,95.50
2018-05-23T21:21:41.987Z,95.70
2018-05-23T21:24:50.947Z,95.90
2018-05-23T21:27:59.715Z,96.00
2018-05-23T21:31:08.409Z,96.20
2018-05-23T21:34:17.004Z,96.30
2018-05-23T21:37:25.619Z,96.40
2018-05-23T21:40:34.339Z,96.50
2018-05-23T21:43:43.844Z,96.80
2018-05-23T21:46:53.414Z,96.80
2018-05-23T21:50:02.234Z,96.80
2018-05-23T21:53:10.830Z,96.90
2018-05-23T21:56:19.462Z,97.10
2018-05-23T21:59:28.185Z,97.10
2018-05-23T22:02:36.859Z,97.20
2018-05-23T22:05:45.452Z,97.30
2018-05-23T22:08:54.069Z,97.50
2018-05-23T22:12:02.602Z,97.50
2018-05-23T22:15:12.038Z,97.50
2018-05-23T22:18:20.754Z,97.50
2018-05-23T22:21:30.395Z,97.70
2018-05-23T22:24:39.194Z,97.70
2018-05-23T22:27:47.785Z,97.70
2018-05-23T22:30:56.430Z,97.70
2018-05-23T22:34:05.059Z,97.70
2018-05-23T22:37:13.809Z,97.90
2018-05-23T22:40:22.522Z,97.80
2018-05-23T22:43:31.313Z,97.60
2018-05-23T22:46:40.070Z,98.00
2018-05-23T22:49:49.573Z,98.20
2018-05-23T22:52:59.171Z,98.20
2018-05-23T22:56:07.984Z,98.20
2018-05-23T22:59:16.798Z,98.30
2018-05-23T23:02:25.513Z,98.40
2018-05-23T23:05:34.964Z,98.30
2018-05-23T23:08:43.673Z,98.30
2018-05-23T23:11:52.514Z,98.30
2018-05-23T23:15:01.130Z,98.30
2018-05-23T23:18:09.858Z,98.30
2018-05-23T23:21:19.472Z,98.30
2018-05-23T23:24:28.369Z,98.30
2018-05-23T23:27:37.860Z,98.30
2018-05-23T23:30:46.563Z,98.20
2018-05-23T23:33:55.221Z,98.30
2018-05-23T23:37:04.047Z,98.30
2018-05-23T23:40:12.752Z,98.00
2018-05-23T23:43:21.472Z,98.00
2018-05-23T23:46:31.061Z,97.90
2018-05-23T23:49:39.680Z,97.90
2018-05-23T23:52:49.235Z,97.80
2018-05-23T23:55:59.622Z,97.90
2018-05-23T23:59:08.322Z,97.80
